createdAt,value
2023-05-02T00:04:06.184Z,46.80
2023-05-02T00:09:09.098Z,46.75
2023-05-02T00:14:11.840Z,47.01
2023-05-02T00:19:14.544Z,47.23
2023-05-02T00:24:20.502Z,47.38
2023-05-02T00:29:23.250Z,47.51
2023-05-02T00:34:32.754Z,47.71
2023-05-02T00:39:35.916Z,48.17
2023-05-02T00:44:38.613Z,48.15
2023-05-02T00:49:41.439Z,48.37
2023-05-02T00:54:44.210Z,48.49
2023-05-02T00:59:47.555Z,48.65
2023-05-02T01:05:10.532Z,48.70
2023-05-02T01:10:41.259Z,48.86
2023-05-02T01:15:45.956Z,48.92
2023-05-02T01:20:57.514Z,49.20
2023-05-02T01:26:18.108Z,49.70
2023-05-02T01:31:23.793Z,49.82
2023-05-02T01:36:31.285Z,50.22
2023-05-02T01:41:35.596Z,50.47
2023-05-02T01:46:43.013Z,50.73
2023-05-02T01:51:50.829Z,50.98
2023-05-02T01:56:54.569Z,51.12
2023-05-02T02:01:59.400Z,51.44
2023-05-02T02:07:06.403Z,51.22
2023-05-02T02:12:15.747Z,50.98
2023-05-02T02:17:37.843Z,50.99
2023-05-02T02:22:43.630Z,51.06
2023-05-02T02:27:48.068Z,51.15
2023-05-02T02:32:51.179Z,51.11
2023-05-02T02:38:06.576Z,51.15
2023-05-02T02:43:27.549Z,51.28
2023-05-02T02:48:43.502Z,51.30
2023-05-02T02:53:58.805Z,51.76
2023-05-02T02:59:25.201Z,51.73
2023-05-02T03:04:28.704Z,51.78
2023-05-02T03:09:42.208Z,51.38
2023-05-02T03:14:45.525Z,51.60
2023-05-02T03:19:48.267Z,51.69
2023-05-02T03:24:51.046Z,51.80
2023-05-02T03:29:53.732Z,52.36
2023-05-02T03:34:58.657Z,52.50
2023-05-02T03:40:01.573Z,52.49
2023-05-02T03:45:05.000Z,52.71
2023-05-02T03:50:08.453Z,52.60
2023-05-02T03:55:11.423Z,52.90
2023-05-02T04:00:14.445Z,52.91
2023-05-02T04:05:17.305Z,52.61
2023-05-02T04:10:20.009Z,52.84
2023-05-02T04:15:22.704Z,53.16
2023-05-02T04:20:25.714Z,53.18
2023-05-02T04:25:29.322Z,53.25
2023-05-02T04:30:32.694Z,53.23
2023-05-02T04:35:35.408Z,53.38
2023-05-02T04:40:38.179Z,53.79
2023-05-02T04:45:41.000Z,53.85
2023-05-02T04:50:45.547Z,54.45
2023-05-02T04:55:48.240Z,54.11
2023-05-02T05:00:50.919Z,54.13
2023-05-02T05:05:53.738Z,54.08
2023-05-02T05:10:56.777Z,54.29
2023-05-02T05:15:59.852Z,53.85
2023-05-02T05:21:02.714Z,53.90
2023-05-02T05:26:13.578Z,53.98
2023-05-02T05:31:17.375Z,54.07
2023-05-02T05:36:22.844Z,54.13
2023-05-02T05:41:26.853Z,53.98
2023-05-02T05:46:29.644Z,53.68
2023-05-02T05:51:32.380Z,53.95
2023-05-02T05:56:35.060Z,54.01
2023-05-02T06:01:39.250Z,54.22
2023-05-02T06:06:42.033Z,54.19
2023-05-02T06:11:45.036Z,53.86
2023-05-02T06:16:47.818Z,53.69
2023-05-02T06:21:50.645Z,53.44
2023-05-02T06:26:53.515Z,53.22
2023-05-02T06:31:57.087Z,53.07
2023-05-02T06:37:00.024Z,52.52
2023-05-02T06:42:03.049Z,52.10
2023-05-02T06:47:10.683Z,52.07
2023-05-02T06:52:13.696Z,52.05
2023-05-02T06:57:16.565Z,52.27
2023-05-02T07:02:19.240Z,52.69
2023-05-02T07:07:22.307Z,52.90
2023-05-02T07:12:26.444Z,53.12
2023-05-02T07:17:29.190Z,53.49
2023-05-02T07:22:32.210Z,53.52
2023-05-02T07:27:40.916Z,53.79
2023-05-02T07:32:43.763Z,53.52
2023-05-02T07:37:46.863Z,53.62
2023-05-02T07:42:53.896Z,53.60
2023-05-02T07:47:56.695Z,53.67
2023-05-02T07:53:00.606Z,53.75
2023-05-02T07:58:04.379Z,53.79
2023-05-02T08:03:07.989Z,53.76
2023-05-02T08:08:10.930Z,53.75
2023-05-02T08:13:14.267Z,53.87
2023-05-02T08:18:17.425Z,53.74
2023-05-02T08:23:20.179Z,53.86
2023-05-02T08:28:22.890Z,53.66
2023-05-02T08:33:26.453Z,53.74
2023-05-02T08:38:29.266Z,53.73
2023-05-02T08:43:34.387Z,54.12
2023-05-02T08:48:39.726Z,53.92
2023-05-02T08:53:43.629Z,53.74
2023-05-02T08:58:46.600Z,53.70
2023-05-02T09:03:49.522Z,53.82
2023-05-02T09:08:55.224Z,54.21
2023-05-02T09:14:04.195Z,54.92
2023-05-02T09:19:07.777Z,54.83
2023-05-02T09:24:18.559Z,55.65
2023-05-02T09:29:22.072Z,55.50
2023-05-02T09:34:24.847Z,56.00
2023-05-02T09:39:29.411Z,56.51
2023-05-02T09:44:39.246Z,56.47
2023-05-02T09:49:45.063Z,57.27
2023-05-02T09:54:50.681Z,57.45
2023-05-02T09:59:57.884Z,57.40
2023-05-02T10:05:02.666Z,57.65
2023-05-02T10:10:08.522Z,57.80
2023-05-02T10:15:16.042Z,57.95
2023-05-02T10:20:32.792Z,58.00
2023-05-02T10:25:36.304Z,58.40
2023-05-02T10:30:39.601Z,58.23
2023-05-02T10:35:49.060Z,57.64
2023-05-02T10:41:03.169Z,55.92
2023-05-02T10:46:38.790Z,55.71
2023-05-02T10:51:43.114Z,55.60
2023-05-02T10:57:12.212Z,54.17
2023-05-02T11:02:25.417Z,53.35
2023-05-02T11:07:29.563Z,52.64
2023-05-02T11:12:53.503Z,51.95
2023-05-02T11:18:02.361Z,48.83
2023-05-02T11:23:18.776Z,46.87
2023-05-02T11:28:36.654Z,47.83
2023-05-02T11:33:39.453Z,45.64
2023-05-02T11:38:42.256Z,45.71
2023-05-02T11:43:45.228Z,44.13
2023-05-02T11:48:51.909Z,42.80
2023-05-02T11:53:54.766Z,42.14
2023-05-02T11:59:04.466Z,42.56
2023-05-02T12:04:08.454Z,42.34
2023-05-02T12:09:20.331Z,42.81
2023-05-02T12:14:32.684Z,43.51
2023-05-02T12:19:38.074Z,43.92
2023-05-02T12:24:41.306Z,43.72
2023-05-02T12:29:48.354Z,43.64
2023-05-02T12:34:51.518Z,43.57
2023-05-02T12:39:58.551Z,43.79
2023-05-02T12:45:01.834Z,43.66
2023-05-02T12:50:04.988Z,44.12
2023-05-02T12:55:21.213Z,43.75
2023-05-02T13:00:23.920Z,43.42
2023-05-02T13:05:27.061Z,43.85
2023-05-02T13:10:29.919Z,43.92
2023-05-02T13:15:32.695Z,44.29
2023-05-02T13:20:35.450Z,44.72
2023-05-02T13:25:38.332Z,45.17
2023-05-02T13:30:41.208Z,45.43
2023-05-02T13:35:43.922Z,45.86
2023-05-02T13:40:49.430Z,45.58
2023-05-02T13:45:52.408Z,45.69
2023-05-02T13:50:55.283Z,46.07
2023-05-02T13:55:58.254Z,46.40
2023-05-02T14:01:03.100Z,46.35
2023-05-02T14:06:06.032Z,46.31
2023-05-02T14:11:08.841Z,46.60
2023-05-02T14:16:11.614Z,47.02
2023-05-02T14:21:14.435Z,47.53
2023-05-02T14:26:17.233Z,47.80
2023-05-02T14:31:20.080Z,48.13
2023-05-02T14:36:22.854Z,48.64
2023-05-02T14:41:26.899Z,49.36
2023-05-02T14:46:29.633Z,50.31
2023-05-02T14:51:32.409Z,51.43
2023-05-02T14:56:35.303Z,52.17
2023-05-02T15:01:38.428Z,52.85
2023-05-02T15:06:41.338Z,53.66
2023-05-02T15:11:44.235Z,53.93
2023-05-02T15:16:47.777Z,54.36
2023-05-02T15:21:53.314Z,54.77
2023-05-02T15:26:56.319Z,55.17
2023-05-02T15:31:59.081Z,55.49
2023-05-02T15:37:02.142Z,55.62
2023-05-02T15:42:06.244Z,56.12
2023-05-02T15:47:09.806Z,56.45
2023-05-02T15:52:12.931Z,56.54
2023-05-02T15:57:15.736Z,56.81
2023-05-02T16:02:19.442Z,57.10
2023-05-02T16:07:22.214Z,57.38
2023-05-02T16:12:24.880Z,57.94
2023-05-02T16:17:27.653Z,58.11
2023-05-02T16:22:30.938Z,58.43
2023-05-02T16:27:33.837Z,58.41
2023-05-02T16:32:41.003Z,58.21
2023-05-02T16:37:43.789Z,58.18
2023-05-02T16:42:46.464Z,58.24
2023-05-02T16:47:49.178Z,58.11
2023-05-02T16:52:52.413Z,58.18
2023-05-02T16:57:55.133Z,58.25
2023-05-02T17:02:58.147Z,58.45
2023-05-02T17:08:01.091Z,58.37
2023-05-02T17:13:04.453Z,58.53
2023-05-02T17:18:07.588Z,58.39
2023-05-02T17:23:12.545Z,58.50
2023-05-02T17:28:15.435Z,58.58
2023-05-02T17:33:18.121Z,58.67
2023-05-02T17:38:21.092Z,58.44
2023-05-02T17:43:23.935Z,58.39
2023-05-02T17:48:26.639Z,58.19
2023-05-02T17:53:29.757Z,58.23
2023-05-02T17:58:35.522Z,58.11
2023-05-02T18:03:38.739Z,58.06
2023-05-02T18:08:41.799Z,58.10
2023-05-02T18:13:46.840Z,58.23
2023-05-02T18:18:49.565Z,58.41
2023-05-02T18:23:52.422Z,58.59
2023-05-02T18:28:55.098Z,58.73
2023-05-02T18:33:58.255Z,58.96
2023-05-02T18:39:00.989Z,58.98
2023-05-02T18:44:06.343Z,58.90
2023-05-02T18:49:09.317Z,58.90
2023-05-02T18:54:12.187Z,58.35
2023-05-02T18:59:14.925Z,57.51
2023-05-02T19:04:18.715Z,57.24
2023-05-02T19:09:21.851Z,57.14
2023-05-02T19:14:24.553Z,57.05
2023-05-02T19:19:27.325Z,57.09
2023-05-02T19:24:30.303Z,57.00
2023-05-02T19:29:33.191Z,56.98
2023-05-02T19:34:37.026Z,57.08
2023-05-02T19:39:39.721Z,57.00
2023-05-02T19:44:42.438Z,57.01
2023-05-02T19:49:45.253Z,57.03
2023-05-02T19:54:50.890Z,57.08
2023-05-02T19:59:53.816Z,57.00
2023-05-02T20:04:56.516Z,56.90
2023-05-02T20:09:59.388Z,56.87
2023-05-02T20:15:02.643Z,56.99
2023-05-02T20:20:08.412Z,56.97
2023-05-02T20:25:11.914Z,56.98
2023-05-02T20:30:15.036Z,57.01
2023-05-02T20:35:18.476Z,57.03
2023-05-02T20:40:23.697Z,57.14
2023-05-02T20:45:26.841Z,57.27
2023-05-02T20:50:29.580Z,57.32
2023-05-02T20:55:32.348Z,57.39
2023-05-02T21:00:37.751Z,57.38
2023-05-02T21:05:40.555Z,57.37
2023-05-02T21:10:45.260Z,57.48
2023-05-02T21:15:50.741Z,57.57
2023-05-02T21:20:54.744Z,57.93
2023-05-02T21:25:57.659Z,57.98
2023-05-02T21:31:01.979Z,57.95
2023-05-02T21:36:06.334Z,58.22
2023-05-02T21:41:09.106Z,58.22
2023-05-02T21:46:12.271Z,58.59
2023-05-02T21:51:15.139Z,58.84
2023-05-02T21:56:17.836Z,59.03
2023-05-02T22:01:20.748Z,59.04
2023-05-02T22:06:23.540Z,59.26
2023-05-02T22:11:28.594Z,59.20
2023-05-02T22:16:31.358Z,59.25
2023-05-02T22:21:34.353Z,59.24
2023-05-02T22:26:37.589Z,59.32
2023-05-02T22:31:40.322Z,59.61
2023-05-02T22:36:43.049Z,59.55
2023-05-02T22:41:45.790Z,59.75
2023-05-02T22:46:48.521Z,59.90
2023-05-02T22:51:52.435Z,59.86
2023-05-02T22:56:55.094Z,60.17
2023-05-02T23:01:59.747Z,60.38
2023-05-02T23:07:02.522Z,60.39
2023-05-02T23:12:05.762Z,60.84
2023-05-02T23:17:08.620Z,61.18
2023-05-02T23:22:11.491Z,60.99
2023-05-02T23:27:14.187Z,61.03
2023-05-02T23:32:17.074Z,72.14
2023-05-02T23:37:19.769Z,68.71
2023-05-02T23:42:22.536Z,54.05
2023-05-02T23:47:28.867Z,51.60
2023-05-02T23:52:31.597Z,52.70
2023-05-02T23:57:34.528Z,54.46
